createdAt,value
2023-02-01T00:02:24.132Z,99.90
2023-02-01T00:05:55.280Z,99.90
2023-02-01T00:09:17.293Z,99.90
2023-02-01T00:12:39.270Z,99.90
2023-02-01T00:16:29.582Z,99.90
2023-02-01T00:19:51.603Z,99.90
2023-02-01T00:23:13.723Z,99.90
2023-02-01T00:26:42.011Z,99.90
2023-02-01T00:30:04.570Z,99.90
2023-02-01T00:33:27.155Z,99.90
2023-02-01T00:36:49.334Z,99.90
2023-02-01T00:40:11.792Z,99.90
2023-02-01T00:43:34.230Z,99.90
2023-02-01T00:46:56.225Z,99.90
2023-02-01T00:50:18.285Z,99.90
2023-02-01T00:53:40.782Z,99.90
2023-02-01T00:57:02.836Z,99.90
2023-02-01T01:00:25.115Z,99.90
2023-02-01T01:03:55.447Z,99.90
2023-02-01T01:07:17.403Z,99.90
2023-02-01T01:10:39.627Z,99.90
2023-02-01T01:14:01.935Z,99.90
2023-02-01T01:17:23.851Z,99.90
2023-02-01T01:20:45.832Z,99.90
2023-02-01T01:24:07.846Z,99.90
2023-02-01T01:27:29.820Z,99.90
2023-02-01T01:30:51.901Z,99.90
2023-02-01T01:34:14.420Z,99.90
2023-02-01T01:37:37.073Z,99.90
2023-02-01T01:40:59.123Z,99.90
2023-02-01T01:44:58.432Z,99.90
2023-02-01T01:48:31.029Z,99.90
2023-02-01T01:51:58.794Z,99.90
2023-02-01T01:55:23.412Z,99.90
2023-02-01T01:58:45.575Z,99.90
2023-02-01T02:02:07.773Z,99.90
2023-02-01T02:05:31.331Z,99.90
2023-02-01T02:08:53.297Z,99.90
2023-02-01T02:12:15.399Z,99.90
2023-02-01T02:15:43.023Z,99.90
2023-02-01T02:19:23.419Z,99.90
2023-02-01T02:23:07.768Z,99.90
2023-02-01T02:27:06.981Z,99.90
2023-02-01T02:30:50.551Z,99.90
2023-02-01T02:34:27.531Z,99.90
2023-02-01T02:38:11.195Z,99.90
2023-02-01T02:41:54.156Z,99.90
2023-02-01T02:45:44.007Z,99.90
2023-02-01T02:49:37.008Z,99.90
2023-02-01T02:53:33.173Z,99.90
2023-02-01T02:57:16.605Z,99.90
2023-02-01T03:00:58.429Z,99.90
2023-02-01T03:04:21.096Z,99.90
2023-02-01T03:07:50.825Z,99.90
2023-02-01T03:11:16.026Z,99.90
2023-02-01T03:14:42.354Z,99.90
2023-02-01T03:18:12.897Z,99.90
2023-02-01T03:21:43.917Z,99.90
2023-02-01T03:25:13.552Z,99.90
2023-02-01T03:28:37.099Z,99.90
2023-02-01T03:31:59.773Z,99.90
2023-02-01T03:35:31.668Z,99.90
2023-02-01T03:39:04.219Z,99.90
2023-02-01T03:42:41.913Z,99.90
2023-02-01T03:46:08.124Z,99.90
2023-02-01T03:49:51.858Z,99.90
2023-02-01T03:53:18.953Z,99.90
2023-02-01T03:56:47.492Z,99.90
2023-02-01T04:00:26.909Z,99.90
2023-02-01T04:03:52.450Z,99.90
2023-02-01T04:07:14.568Z,99.90
2023-02-01T04:10:36.527Z,99.90
2023-02-01T04:13:58.766Z,99.90
2023-02-01T04:17:20.765Z,99.90
2023-02-01T04:20:44.290Z,99.90
2023-02-01T04:24:06.872Z,99.90
2023-02-01T04:27:28.835Z,99.90
2023-02-01T04:30:50.988Z,99.90
2023-02-01T04:34:13.070Z,99.90
2023-02-01T04:37:35.858Z,99.90
2023-02-01T04:40:57.858Z,99.90
2023-02-01T04:44:20.307Z,99.90
2023-02-01T04:47:42.283Z,99.90
2023-02-01T04:51:04.352Z,99.90
2023-02-01T04:54:26.442Z,99.90
2023-02-01T04:57:48.389Z,99.90
2023-02-01T05:01:10.348Z,99.90
2023-02-01T05:04:32.452Z,99.90
2023-02-01T05:07:54.369Z,99.90
2023-02-01T05:11:35.196Z,99.90
2023-02-01T05:14:57.280Z,99.90
2023-02-01T05:18:19.344Z,99.90
2023-02-01T05:21:41.286Z,99.90
2023-02-01T05:25:03.513Z,99.90
2023-02-01T05:28:25.474Z,99.90
2023-02-01T05:31:48.478Z,99.90
2023-02-01T05:35:10.645Z,99.90
2023-02-01T05:38:32.613Z,99.90
2023-02-01T05:41:54.563Z,99.90
2023-02-01T05:49:40.552Z,99.90
2023-02-01T05:53:02.528Z,99.90
2023-02-01T05:56:24.551Z,99.90
2023-02-01T05:59:46.673Z,99.90
2023-02-01T06:03:09.312Z,99.90
2023-02-01T06:06:31.270Z,99.90
2023-02-01T06:09:53.184Z,99.90
2023-02-01T06:13:15.136Z,99.90
2023-02-01T06:16:37.096Z,99.90
2023-02-01T06:19:59.346Z,99.90
2023-02-01T06:23:25.048Z,99.90
2023-02-01T06:26:47.205Z,99.90
2023-02-01T06:30:10.624Z,99.90
2023-02-01T06:33:34.420Z,99.90
2023-02-01T06:36:56.392Z,99.90
2023-02-01T06:40:18.481Z,99.90
2023-02-01T06:43:40.798Z,99.90
2023-02-01T06:47:05.460Z,99.90
2023-02-01T06:50:28.846Z,99.90
2023-02-01T06:53:51.298Z,99.90
2023-02-01T06:57:13.254Z,99.90
2023-02-01T07:00:35.304Z,99.90
2023-02-01T07:03:58.672Z,99.90
2023-02-01T07:07:21.616Z,99.90
2023-02-01T07:10:43.545Z,99.90
2023-02-01T07:14:05.510Z,99.90
2023-02-01T07:17:27.536Z,99.90
2023-02-01T07:20:52.611Z,99.90
2023-02-01T07:24:15.765Z,99.90
2023-02-01T07:27:38.279Z,99.90
2023-02-01T07:31:08.220Z,99.90
2023-02-01T07:34:31.885Z,99.90
2023-02-01T07:37:53.825Z,99.90
2023-02-01T07:41:16.144Z,99.90
2023-02-01T07:44:38.069Z,99.90
2023-02-01T07:48:00.107Z,99.90
2023-02-01T07:51:22.082Z,99.90
2023-02-01T07:54:44.500Z,99.90
2023-02-01T07:58:06.535Z,99.90
2023-02-01T08:01:29.908Z,99.90
2023-02-01T08:04:51.963Z,99.90
2023-02-01T08:08:14.081Z,81.90
2023-02-01T08:11:38.857Z,1.00
2023-02-01T08:15:00.941Z,99.90
2023-02-01T08:18:22.863Z,32.70
2023-02-01T08:21:44.883Z,99.90
2023-02-01T08:25:07.563Z,99.90
2023-02-01T08:28:29.718Z,19.90
2023-02-01T08:31:51.899Z,1.00
2023-02-01T08:35:14.878Z,1.00
2023-02-01T08:38:38.350Z,1.00
2023-02-01T08:42:19.271Z,1.00
2023-02-01T08:45:41.342Z,1.00
2023-02-01T08:49:03.351Z,1.00
2023-02-01T08:52:25.642Z,1.00
2023-02-01T08:55:48.134Z,1.00
2023-02-01T08:59:10.242Z,1.00
2023-02-01T09:02:32.315Z,1.00
2023-02-01T09:06:04.856Z,1.00
2023-02-01T09:09:29.272Z,1.00
2023-02-01T09:12:51.240Z,1.00
2023-02-01T09:16:13.828Z,1.00
2023-02-01T09:19:35.944Z,1.00
2023-02-01T09:22:58.036Z,1.00
2023-02-01T09:26:26.587Z,1.00
2023-02-01T09:29:56.177Z,1.00
2023-02-01T09:33:18.678Z,1.00
2023-02-01T09:36:40.661Z,1.00
2023-02-01T09:40:02.608Z,1.00
2023-02-01T09:43:40.895Z,1.00
2023-02-01T09:47:03.181Z,1.00
2023-02-01T09:50:36.020Z,1.00
2023-02-01T09:54:10.217Z,1.00
2023-02-01T09:57:51.622Z,1.00
2023-02-01T10:01:23.408Z,1.00
2023-02-01T10:04:45.740Z,1.00
2023-02-01T10:08:18.004Z,1.00
2023-02-01T10:12:10.810Z,1.00
2023-02-01T10:15:57.131Z,1.00
2023-02-01T10:19:36.239Z,1.00
2023-02-01T10:23:32.617Z,1.00
2023-02-01T10:27:11.957Z,1.00
2023-02-01T10:30:47.144Z,1.00
2023-02-01T10:34:19.303Z,1.00
2023-02-01T10:37:43.341Z,1.00
2023-02-01T10:41:14.833Z,1.00
2023-02-01T10:44:44.254Z,1.00
2023-02-01T10:48:09.394Z,1.00
2023-02-01T10:51:42.806Z,1.00
2023-02-01T10:55:27.667Z,1.00
2023-02-01T10:58:49.793Z,1.00
2023-02-01T11:02:28.837Z,1.00
2023-02-01T11:05:51.139Z,1.00
2023-02-01T11:09:23.775Z,1.00
2023-02-01T11:12:55.118Z,1.00
2023-02-01T11:16:17.198Z,1.00
2023-02-01T11:19:40.883Z,1.00
2023-02-01T11:23:03.539Z,1.00
2023-02-01T11:26:27.332Z,1.00
2023-02-01T11:29:52.882Z,1.00
2023-02-01T11:33:20.840Z,1.00
2023-02-01T11:36:43.616Z,1.00
2023-02-01T11:40:30.117Z,1.00
2023-02-01T11:43:58.965Z,1.00
2023-02-01T11:47:28.236Z,1.00
2023-02-01T11:51:14.007Z,1.00
2023-02-01T11:55:04.722Z,1.00
2023-02-01T11:58:29.647Z,1.00
2023-02-01T12:02:11.763Z,1.00
2023-02-01T12:05:41.784Z,1.00
2023-02-01T12:09:27.183Z,1.00
2023-02-01T12:13:19.368Z,1.00
2023-02-01T12:17:01.982Z,1.00
2023-02-01T12:20:50.602Z,1.00
2023-02-01T12:24:31.174Z,1.00
2023-02-01T12:28:20.952Z,1.00
2023-02-01T12:32:04.012Z,1.00
2023-02-01T12:35:47.183Z,1.00
2023-02-01T12:39:24.107Z,1.00
2023-02-01T12:42:59.582Z,1.00
2023-02-01T12:46:41.219Z,1.00
2023-02-01T12:50:16.442Z,1.00
2023-02-01T12:53:47.670Z,7.30
2023-02-01T12:57:34.975Z,1.00
2023-02-01T13:01:09.653Z,1.00
2023-02-01T13:04:42.644Z,1.00
2023-02-01T13:08:11.092Z,1.00
2023-02-01T13:11:37.737Z,1.00
2023-02-01T13:15:17.208Z,1.00
2023-02-01T13:18:43.978Z,1.00
2023-02-01T13:22:16.768Z,1.00
2023-02-01T13:25:50.496Z,1.00
2023-02-01T13:29:13.893Z,1.00
2023-02-01T13:33:50.298Z,1.00
2023-02-01T13:36:47.205Z,1.00
2023-02-01T13:40:24.673Z,1.00
2023-02-01T13:43:54.062Z,1.00
2023-02-01T13:47:32.625Z,1.00
2023-02-01T13:50:58.233Z,1.00
2023-02-01T13:54:39.083Z,1.00
2023-02-01T13:58:22.814Z,1.00
2023-02-01T14:01:44.943Z,1.00
2023-02-01T14:05:25.647Z,1.00
2023-02-01T14:09:08.244Z,1.00
2023-02-01T14:12:47.302Z,1.00
2023-02-01T14:16:16.771Z,1.00
2023-02-01T14:19:39.055Z,1.00
2023-02-01T14:23:05.438Z,1.00
2023-02-01T14:26:39.141Z,1.00
2023-02-01T14:30:05.944Z,1.00
2023-02-01T14:33:29.780Z,1.00
2023-02-01T14:36:57.157Z,1.00
2023-02-01T14:40:26.268Z,1.00
2023-02-01T14:44:11.924Z,3.00
2023-02-01T14:47:34.922Z,8.10
2023-02-01T14:50:58.907Z,10.10
2023-02-01T14:54:21.042Z,15.90
2023-02-01T14:57:45.178Z,45.80
2023-02-01T15:01:25.643Z,74.70
2023-02-01T15:04:48.133Z,77.80
2023-02-01T15:08:21.669Z,83.80
2023-02-01T15:12:12.128Z,98.20
2023-02-01T15:15:37.338Z,99.90
2023-02-01T15:19:11.841Z,99.90
2023-02-01T15:22:34.036Z,99.90
2023-02-01T15:25:56.468Z,99.90
2023-02-01T15:29:19.873Z,99.90
2023-02-01T15:32:41.827Z,99.90
2023-02-01T15:36:06.790Z,99.90
2023-02-01T15:39:30.557Z,99.90
2023-02-01T15:42:58.471Z,1.00
2023-02-01T15:46:32.233Z,1.00
2023-02-01T15:49:59.444Z,99.90
2023-02-01T15:53:24.303Z,99.90
2023-02-01T15:56:54.594Z,1.00
2023-02-01T16:00:42.596Z,84.60
2023-02-01T16:04:23.773Z,99.90
2023-02-01T16:08:16.849Z,99.90
2023-02-01T16:11:55.600Z,99.90
2023-02-01T16:15:17.535Z,99.90
2023-02-01T16:18:39.481Z,99.90
2023-02-01T16:22:01.422Z,99.90
2023-02-01T16:25:23.681Z,1.00
2023-02-01T16:28:46.434Z,1.00
2023-02-01T16:32:16.613Z,1.00
2023-02-01T16:35:39.480Z,1.00
2023-02-01T16:39:01.622Z,1.00
2023-02-01T16:42:23.615Z,1.00
2023-02-01T16:45:50.289Z,1.00
2023-02-01T16:49:22.250Z,1.00
2023-02-01T16:52:44.853Z,1.00
2023-02-01T16:56:18.558Z,26.40
2023-02-01T16:59:40.979Z,40.70
2023-02-01T17:03:02.955Z,72.50
2023-02-01T17:06:28.432Z,61.10
2023-02-01T17:09:50.571Z,66.40
2023-02-01T17:13:17.044Z,34.00
2023-02-01T17:16:39.185Z,66.50
2023-02-01T17:20:01.289Z,91.80
2023-02-01T17:23:23.541Z,68.70
2023-02-01T17:26:46.436Z,81.70
2023-02-01T17:30:10.467Z,76.40
2023-02-01T17:33:36.637Z,90.50
2023-02-01T17:36:58.702Z,78.70
2023-02-01T17:40:20.895Z,61.00
2023-02-01T17:43:42.982Z,63.00
2023-02-01T17:47:04.997Z,82.00
2023-02-01T17:50:30.130Z,99.90
2023-02-01T17:53:52.108Z,99.90
2023-02-01T17:57:14.404Z,99.90
2023-02-01T18:00:38.179Z,99.90
2023-02-01T18:04:01.329Z,99.90
2023-02-01T18:07:23.248Z,99.90
2023-02-01T18:10:45.258Z,99.90
2023-02-01T18:14:07.238Z,99.90
2023-02-01T18:17:29.189Z,99.90
2023-02-01T18:20:51.426Z,99.90
2023-02-01T18:24:14.900Z,99.90
2023-02-01T18:27:36.974Z,99.90
2023-02-01T18:30:59.369Z,99.90
2023-02-01T18:34:23.848Z,99.90
2023-02-01T18:37:46.677Z,99.90
2023-02-01T18:41:15.565Z,99.90
2023-02-01T18:44:37.563Z,99.90
2023-02-01T18:48:00.145Z,99.90
2023-02-01T18:51:23.514Z,99.90
2023-02-01T18:54:58.832Z,99.90
2023-02-01T18:58:23.020Z,99.90
2023-02-01T19:01:45.293Z,99.90
2023-02-01T19:05:08.558Z,99.90
2023-02-01T19:08:30.448Z,99.90
2023-02-01T19:11:52.448Z,99.90
2023-02-01T19:15:15.866Z,99.90
2023-02-01T19:18:38.189Z,99.90
2023-02-01T19:22:00.158Z,99.90
2023-02-01T19:25:25.231Z,99.90
2023-02-01T19:28:48.880Z,99.90
2023-02-01T19:32:11.116Z,99.90
2023-02-01T19:35:33.379Z,99.90
2023-02-01T19:38:55.365Z,99.90
2023-02-01T19:42:17.428Z,99.90
2023-02-01T19:45:39.341Z,99.90
2023-02-01T19:49:01.383Z,99.90
2023-02-01T19:52:23.324Z,99.90
2023-02-01T19:55:46.778Z,99.90
2023-02-01T19:59:09.101Z,99.90
2023-02-01T20:02:30.403Z,99.90
2023-02-01T20:05:53.979Z,99.90
2023-02-01T20:09:17.978Z,99.90
2023-02-01T20:12:40.517Z,99.90
2023-02-01T20:16:02.696Z,99.90
2023-02-01T20:19:24.690Z,99.90
2023-02-01T20:22:46.714Z,99.90
2023-02-01T20:26:12.233Z,99.90
2023-02-01T20:29:34.426Z,99.90
2023-02-01T20:32:56.469Z,99.90
2023-02-01T20:36:18.678Z,99.90
2023-02-01T20:39:40.621Z,99.90
2023-02-01T20:43:02.595Z,99.90
2023-02-01T20:46:25.061Z,99.90
2023-02-01T20:49:46.993Z,99.90
2023-02-01T20:53:12.768Z,99.90
2023-02-01T20:56:39.729Z,99.90
2023-02-01T21:00:01.766Z,99.90
2023-02-01T21:03:24.393Z,99.90
2023-02-01T21:06:46.478Z,99.90
2023-02-01T21:10:09.565Z,99.90
2023-02-01T21:13:36.315Z,99.90
2023-02-01T21:16:58.313Z,99.90
2023-02-01T21:20:20.506Z,99.90
2023-02-01T21:23:45.380Z,99.90
2023-02-01T21:27:11.305Z,99.90
2023-02-01T21:30:33.310Z,99.90
2023-02-01T21:33:56.274Z,99.90
2023-02-01T21:37:18.702Z,99.90
2023-02-01T21:40:40.765Z,99.90
2023-02-01T21:44:02.743Z,99.90
2023-02-01T21:47:26.775Z,99.90
2023-02-01T21:50:49.362Z,99.90
2023-02-01T21:54:12.057Z,99.90
2023-02-01T21:57:34.474Z,99.90
2023-02-01T22:00:56.540Z,99.90
2023-02-01T22:04:18.708Z,99.90
2023-02-01T22:07:41.251Z,99.90
2023-02-01T22:11:03.376Z,99.90
2023-02-01T22:14:25.301Z,99.90
2023-02-01T22:17:47.320Z,99.90
2023-02-01T22:21:09.701Z,99.90
2023-02-01T22:24:31.953Z,99.90
2023-02-01T22:28:30.722Z,99.90
2023-02-01T22:31:36.756Z,99.90
2023-02-01T22:34:58.826Z,99.90
2023-02-01T22:38:23.107Z,99.90
2023-02-01T22:41:45.076Z,99.90
2023-02-01T22:45:07.301Z,99.90
2023-02-01T22:48:30.946Z,99.90
2023-02-01T22:51:52.925Z,99.90
2023-02-01T22:55:14.982Z,99.90
2023-02-01T22:58:36.992Z,99.90
2023-02-01T23:01:58.981Z,99.90
2023-02-01T23:05:22.020Z,99.90
2023-02-01T23:08:45.218Z,99.90
2023-02-01T23:12:07.284Z,99.90
2023-02-01T23:15:29.459Z,99.90
2023-02-01T23:18:51.566Z,99.90
2023-02-01T23:22:13.490Z,99.90
2023-02-01T23:25:35.490Z,99.90
2023-02-01T23:28:58.841Z,99.90
2023-02-01T23:32:20.956Z,99.90
2023-02-01T23:35:42.954Z,99.90
2023-02-01T23:39:04.908Z,99.90
2023-02-01T23:42:26.893Z,99.90
2023-02-01T23:45:48.835Z,99.90
2023-02-01T23:49:11.224Z,99.90
2023-02-01T23:52:33.208Z,99.90
2023-02-01T23:55:56.013Z,99.90
2023-02-01T23:59:20.847Z,99.90
